Mahone, West Virginia
Current Conditions -  °F | °C
As of 3:53 PM on Tuesday 25 Nov 2014 (Local Time) from KPKB Reporting Station
Clear Clear  
Wind Chill: 50°   Ceiling: Unl
Heat Index: 50°   Visibility: 10mi
Dew Point: 26°   Wind: 7mph
Humidity: 39%   Direction: 260°W
Pressure: 30.09"   Gusts: NA
Location:  39.1565°N, 81.0304°W
Report Text: KPKB 252053Z 26006KT 10SM CLR 10/M03 A3009 RMK AO2 SLP193 T01001033 53002
Loading
Personal Weather Stations






























Interactive Weather Map New forecast layout! Learn more

10-Day Weather Forecast

Advertisements
Track Severe Weather on mobile